Latest Weather Observations for Shay Gap

IDW60801

Issued at 11:05 pm WST Saturday 25 October 2014 (issued every 30 minutes, with the page automatically refreshed every 10 minutes)

About weather observations | Map of weather stations | Latest weather observations for WA | Other Formats
Station Details ID: 504045 Name: SHAY GAP Lat: -20.43 Lon: 120.13 Height: 173.83 m
Data from the previous 72 hours. | See also: Recent months for locations in Western Australia
Date/Time
WST
Temp
°C
App
Temp
°C
Dew
Point
Rel
Hum
%
Delta-T
°C
Wind Press
QNH
hPa
Press
MSL
hPa
Rain
since 9 am
mm
Dir
 
Spd
km/h
Gust
km/h
Spd
kts
Gust
kts
25/11:00pm 28.8 29.4 15.7 45 8.1 SSE 7 11 4 6 1012.5 1011.3 0.0
25/10:30pm 29.2 29.2 15.3 42 8.6 SSE 9 13 5 7 1013.6 1012.4 0.0
25/10:00pm 29.9 29.9 16.3 43 8.5 SSE 11 13 6 7 1014.3 1013.1 0.0
25/09:30pm 29.9 30.0 17.4 47 8.0 SSE 13 17 7 9 1015.0 1013.8 0.0
25/09:00pm 30.2 29.7 16.9 44 8.4 SSE 15 20 8 11 1015.0 1013.8 0.0
25/08:30pm 30.9 31.5 17.6 45 8.5 SW 11 17 6 9 1014.8 1013.6 0.0
25/08:23pm 30.5 27.9 17.9 47 8.1 ESE 28 46 15 25 1014.8 1013.6 0.0
25/08:00pm 28.0 30.2 21.1 66 4.6 N 11 15 6 8 1013.4 1012.2 0.0
25/07:30pm 28.4 28.7 20.7 63 5.1 NW 20 28 11 15 1013.3 1012.1 0.0
25/07:00pm 29.7 28.8 18.2 50 7.4 NNW 20 24 11 13 1012.3 1011.1 0.0
25/06:30pm 30.5 29.2 18.2 47 8.0 N 22 30 12 16 1012.1 1010.9 0.0
25/06:00pm 31.5 30.2 18.1 44 8.7 N 22 32 12 17 1011.9 1010.7 0.0
25/05:30pm 32.6 31.2 20.5 49 8.1 N 28 35 15 19 1011.4 1010.2 0.0
25/05:00pm 34.2 33.4 20.9 45 9.0 N 26 32 14 17 1011.0 1009.8 0.0
25/04:30pm 35.8 34.6 20.9 42 10.1 N 28 35 15 19 1011.0 1009.8 0.0
25/04:00pm 36.4 35.3 20.2 38 10.9 N 26 37 14 20 1010.6 1009.5 0.0
25/03:30pm 36.7 35.3 20.5 39 11.0 N 28 33 15 18 1010.6 1009.5 0.0
25/03:00pm 36.4 34.3 20.6 39 10.7 NNW 32 39 17 21 1010.6 1009.5 0.0
25/02:30pm 38.6 35.9 21.3 36 11.9 N 37 44 20 24 1010.8 1009.6 0.0
25/02:20pm 39.6 37.2 20.3 32 13.1 NNW 33 44 18 24 1010.8 1009.6 0.0
25/02:00pm 40.8 38.1 9.1 15 18.7 NW 13 20 7 11 1010.8 1009.6 0.0
25/01:30pm 41.5 38.8 7.5 13 19.6 WSW 11 17 6 9 1011.2 1010.0 0.0
25/01:00pm 40.0 38.7 11.2 18 17.4 WSW 9 17 5 9 1011.6 1010.4 0.0
25/12:30pm 39.7 38.4 12.5 20 16.7 NNW 11 24 6 13 1012.1 1010.9 0.0
25/12:00pm 38.5 38.6 15.6 26 14.6 E 9 15 5 8 1012.5 1011.3 0.0
25/11:30am 36.5 37.2 16.1 29 13.0 N 7 13 4 7 1013.0 1011.8 0.0
25/11:00am 35.5 36.6 17.2 33 11.8 E 7 13 4 7 1013.5 1012.3 0.0
25/10:30am 35.6 37.4 18.2 35 11.4 SE 6 13 3 7 1013.8 1012.6 0.0
25/10:00am 33.6 34.6 17.7 38 10.3 ENE 9 13 5 7 1014.1 1012.9 0.0
25/09:30am 32.4 34.3 18.9 44 8.9 NNE 7 13 4 7 1014.2 1013.0 0.0
25/09:00am 31.0 32.9 19.7 51 7.5 E 9 11 5 6 1014.1 1012.9 0.0
25/08:30am 29.0 30.6 19.9 58 6.0 NE 11 17 6 9 1014.3 1013.1 0.0
25/08:04am 27.6 29.8 21.2 68 4.3 ENE 11 17 6 9 1014.4 1013.2 0.0
25/08:00am 27.3 29.7 21.6 71 3.8 ENE 11 17 6 9 1014.4 1013.2 0.0
25/07:30am 25.9 28.1 21.8 78 2.8 ENE 13 15 7 8 1014.4 1013.2 0.0
25/07:00am 24.9 27.0 22.4 86 1.7 ENE 15 19 8 10 1014.2 1013.0 0.0
25/06:30am 23.8 27.0 22.4 92 0.9 E 9 11 5 6 1013.9 1012.7 0.0
25/06:00am 22.7 25.3 22.0 96 0.5 E 11 11 6 6 1013.8 1012.6 0.0
25/05:30am 22.5 25.9 22.0 97 0.3 ESE 7 9 4 5 1013.4 1012.2 0.0
25/05:00am 22.0 26.4 21.3 96 0.5 CALM 0 4 0 2 1013.2 1012.0 0.0
25/04:30am 21.7 24.6 21.0 96 0.5 ESE 7 7 4 4 1012.8 1011.6 0.0
25/04:17am 22.4 25.9 21.9 97 0.3 ESE 6 9 3 5 1012.8 1011.6 0.0
25/04:01am 22.2 26.7 21.5 96 0.5 CALM 0 4 0 2 1012.8 1011.6 0.0
25/04:00am 22.4 26.6 21.7 96 0.5 ESE 2 6 1 3 1012.8 1011.6 0.0
25/03:30am 22.3 26.8 21.5 95 0.5 CALM 0 0 0 0 1012.4 1011.2 0.0
25/03:00am 22.8 26.3 22.1 96 0.5 SSE 7 9 4 5 1012.5 1011.3 0.0
25/02:30am 22.9 26.4 22.1 95 0.5 E 7 9 4 5 1012.2 1011.0 0.0
25/02:00am 23.5 27.0 22.8 96 0.5 NNW 9 11 5 6 1011.7 1010.5 0.0
25/01:30am 23.4 26.7 22.6 95 0.5 NW 9 13 5 7 1011.8 1010.6 0.0
25/01:00am 23.7 27.2 22.9 95 0.5 WNW 9 11 5 6 1012.0 1010.8 0.0
25/12:30am 24.0 27.7 22.6 92 0.9 NNW 7 9 4 5 1012.3 1011.1 0.0
25/12:00am 24.3 26.7 22.9 92 1.0 NW 15 22 8 12 1012.6 1011.4 0.0
 
Date/Time
WST
Temp
°C
App
Temp
°C
Dew
Point
Rel
Hum
%
Delta-T
°C
Wind Press
QNH
hPa
Press
MSL
hPa
Rain
since 9 am
mm
Dir
 
Spd
km/h
Gust
km/h
Spd
kts
Gust
kts
24/11:30pm 24.3 26.3 22.9 92 0.9 NW 17 22 9 12 1013.0 1011.8 0.0
24/11:00pm 24.3 26.3 22.9 92 0.9 NW 17 20 9 11 1013.2 1012.0 0.0
24/10:30pm 24.4 25.9 23.0 92 1.0 NW 20 24 11 13 1013.3 1012.1 0.0
24/10:00pm 24.6 26.6 23.0 91 1.1 NNW 17 20 9 11 1013.4 1012.2 0.0
24/09:30pm 24.8 26.8 23.0 90 1.2 N 17 20 9 11 1013.3 1012.1 0.0
24/09:00pm 25.0 26.7 23.1 89 1.3 N 19 24 10 13 1013.3 1012.1 0.0
24/08:30pm 25.7 27.4 22.4 82 2.2 N 17 20 9 11 1012.9 1011.7 0.0
24/08:07pm 26.1 27.2 22.0 78 2.8 N 19 24 10 13 1012.6 1011.4 0.0
24/08:00pm 26.3 27.2 21.5 75 3.2 N 19 24 10 13 1012.6 1011.4 0.0
24/07:30pm 27.1 27.6 20.9 69 4.1 N 19 26 10 14 1012.1 1010.9 0.0
24/07:00pm 28.1 27.2 19.9 61 5.4 N 24 30 13 16 1011.8 1010.6 0.0
24/06:30pm 29.3 28.1 18.4 51 7.0 N 22 32 12 17 1011.1 1009.9 0.0
24/06:00pm 30.6 28.1 17.0 44 8.7 N 26 32 14 17 1010.9 1009.7 0.0
24/05:30pm 32.1 29.3 16.4 39 9.9 N 26 32 14 17 1010.8 1009.6 0.0
24/05:00pm 33.3 29.5 15.8 35 11.0 N 30 39 16 21 1010.2 1009.1 0.0
24/04:30pm 33.8 29.8 16.6 35 11.0 N 33 41 18 22 1009.9 1008.7 0.0
24/04:00pm 34.9 29.8 14.7 29 12.6 N 35 44 19 24 1009.6 1008.4 0.0
24/03:30pm 36.3 31.6 14.9 28 13.5 N 33 41 18 22 1009.8 1008.6 0.0
24/03:00pm 36.9 32.8 14.8 26 13.9 N 30 39 16 21 1009.8 1008.6 0.0
24/02:30pm 36.7 33.7 16.8 30 12.9 N 28 35 15 19 1009.9 1008.7 0.0
24/02:00pm 37.5 36.2 19.9 35 11.9 N 26 39 14 21 1010.0 1008.8 0.0
24/01:41pm 38.3 37.0 20.6 35 12.1 N 28 50 15 27 1010.0 1008.8 0.0
24/01:30pm 37.4 36.3 20.2 36 11.6 NNE 26 35 14 19 1010.1 1009.0 0.0
24/01:00pm 38.6 37.1 19.4 32 12.9 N 26 35 14 19 1010.3 1009.2 0.0
24/12:30pm 38.5 36.4 13.7 23 15.4 NNE 17 26 9 14 1010.8 1009.6 0.0
24/12:00pm 37.8 36.6 11.7 21 15.8 E 9 15 5 8 1011.1 1009.9 0.0
24/11:30am 37.4 35.9 10.7 20 15.9 NNE 9 17 5 9 1011.5 1010.3 0.0
24/11:00am 36.5 35.6 12.7 24 14.5 N 9 19 5 10 1011.8 1010.6 0.0
24/10:30am 35.8 35.9 15.5 29 12.8 WNW 9 13 5 7 1012.1 1010.9 0.0
24/10:00am 34.4 35.5 16.7 34 11.3 E 6 13 3 7 1012.4 1011.2 0.0
24/09:30am 33.1 34.7 19.2 43 9.2 E 9 13 5 7 1012.6 1011.4 0.0
24/09:00am 31.6 32.8 19.9 50 7.8 NE 13 20 7 11 1012.8 1011.6 -
24/08:30am 30.0 32.0 20.8 57 6.2 ENE 11 15 6 8 1012.9 1011.7 -
24/08:00am 28.3 30.5 21.8 68 4.4 ENE 13 17 7 9 1012.8 1011.6 -
24/07:52am 27.8 30.2 21.6 69 4.2 E 11 17 6 9 1013.0 1011.8 -
24/07:30am 26.5 28.5 21.5 74 3.3 NE 13 19 7 10 1012.7 1011.5 -
24/07:00am 25.5 26.6 22.0 81 2.4 ENE 19 24 10 13 1012.6 1011.4 -
24/06:30am 24.1 25.4 21.6 86 1.7 NE 17 20 9 11 1012.5 1011.3 -
24/06:00am 23.4 24.7 21.7 90 1.1 NE 17 19 9 10 1012.4 1011.2 -
24/05:30am 23.3 24.7 21.9 92 0.9 ENE 17 24 9 13 1012.2 1011.0 -
24/05:00am 23.3 24.6 22.3 94 0.7 E 19 22 10 12 1012.1 1010.9 -
24/04:30am 23.5 25.9 22.3 93 0.8 E 13 15 7 8 1011.7 1010.5 -
24/04:00am 23.6 27.3 22.6 94 0.7 SSE 7 11 4 6 1011.3 1010.1 -
24/03:30am 23.4 27.2 22.4 94 0.7 SSE 6 7 3 4 1011.1 1009.9 -
24/03:00am 23.5 27.4 22.5 94 0.7 E 6 11 3 6 1010.8 1009.6 0.0
24/02:30am 23.8 27.6 22.8 94 0.7 NE 7 9 4 5 1010.5 1009.4 -
24/02:00am 23.8 26.2 22.9 95 0.6 NNE 15 20 8 11 1010.6 1009.5 -
24/01:30am 24.0 26.5 23.1 95 0.6 N 15 19 8 10 1010.6 1009.5 -
24/01:00am 24.1 27.0 23.1 94 0.7 NNW 13 17 7 9 1011.1 1009.9 -
24/12:30am 24.1 26.2 23.1 94 0.7 N 17 20 9 11 1011.5 1010.3 -
24/12:00am 24.1 25.0 22.7 92 0.9 N 22 28 12 15 1011.5 1010.3 -
 
Date/Time
WST
Temp
°C
App
Temp
°C
Dew
Point
Rel
Hum
%
Delta-T
°C
Wind Press
QNH
hPa
Press
MSL
hPa
Rain
since 9 am
mm
Dir
 
Spd
km/h
Gust
km/h
Spd
kts
Gust
kts
23/11:30pm 24.4 25.5 21.3 83 2.1 N 17 20 9 11 1012.2 1011.0 -
23/11:23pm 24.6 25.6 21.1 81 2.3 N 17 20 9 11 1012.1 1010.9 -
23/11:00pm 25.1 26.0 20.1 74 3.3 N 15 17 8 9 1012.5 1011.3 -
23/10:30pm 25.7 26.1 18.9 66 4.4 N 15 19 8 10 1012.8 1011.6 -
23/10:00pm 26.5 26.6 18.4 61 5.2 N 15 17 8 9 1012.8 1011.6 -
23/09:30pm 27.5 26.6 17.7 55 6.2 N 19 22 10 12 1012.7 1011.5 -
23/09:00pm 28.1 27.5 15.7 46 7.7 NNE 13 19 7 10 1012.8 1011.6 0.0
23/08:30pm 28.6 26.7 16.8 48 7.4 NE 22 26 12 14 1012.7 1011.5 -
23/08:00pm 28.5 27.7 17.1 50 7.2 NE 17 20 9 11 1012.4 1011.2 -
23/07:30pm 29.0 28.0 17.5 49 7.3 NNE 19 22 10 12 1011.8 1010.6 -
23/07:00pm 29.6 28.8 17.1 47 7.9 NNE 17 22 9 12 1011.5 1010.3 -
23/06:30pm 30.1 28.3 17.9 48 7.8 N 24 30 13 16 1011.0 1009.8 -
23/06:00pm 31.2 29.7 18.5 46 8.3 N 24 32 13 17 1010.4 1009.3 -
23/05:30pm 33.0 31.1 17.6 40 9.9 N 24 30 13 16 1009.9 1008.7 -
23/05:00pm 34.8 32.1 16.6 33 11.7 N 26 32 14 17 1009.2 1008.0 -
23/04:30pm 36.1 33.7 16.3 31 12.7 N 24 32 13 17 1008.9 1007.7 -
23/04:00pm 38.0 34.4 15.2 26 14.5 N 28 35 15 19 1008.6 1007.4 -
23/03:30pm 40.5 35.9 1.5 9 20.5 S 15 30 8 16 1008.7 1007.5 -
23/03:00pm 40.9 35.7 3.3 10 20.4 SE 20 32 11 17 1008.7 1007.5 -
23/02:30pm 40.6 35.9 3.1 10 20.2 SSW 17 26 9 14 1008.7 1007.5 -
23/02:00pm 39.8 35.0 2.5 10 19.9 S 17 28 9 15 1009.2 1008.0 -
23/01:30pm 40.0 34.6 2.6 10 19.9 S 20 32 11 17 1009.5 1008.3 -
23/01:00pm 39.3 33.1 2.1 10 19.6 S 24 32 13 17 1010.0 1008.8 -
23/12:30pm 39.5 32.9 2.2 10 19.7 S 26 35 14 19 1010.5 1009.4 -
23/12:00pm 38.2 31.3 2.6 11 18.8 S 28 35 15 19 1011.0 1009.8 -
23/11:30am 38.6 31.8 2.9 11 19.0 S 28 46 15 25 1011.1 1009.9 -
23/11:24am 38.6 31.8 2.9 11 19.0 S 28 46 15 25 1011.1 1009.9 -
23/11:00am 39.2 31.4 2.0 10 19.6 S 32 41 17 22 1011.5 1010.3 -
23/10:30am 37.4 29.6 2.0 11 18.4 S 32 39 17 21 1011.6 1010.4 -
23/10:00am 36.3 28.8 3.5 13 17.4 SSE 32 46 17 25 1011.7 1010.5 -
23/09:30am 35.6 28.2 4.0 14 16.8 SSE 32 43 17 23 1011.7 1010.5 -
23/09:00am 34.1 28.0 4.7 16 15.7 SSE 26 35 14 19 1011.9 1010.7 0.0
23/08:30am 33.1 27.8 4.8 17 15.0 SSE 22 32 12 17 1011.9 1010.7 0.0
23/08:00am 32.5 27.4 4.3 17 14.8 SSE 20 28 11 15 1011.9 1010.7 0.0
23/07:30am 31.9 26.7 3.8 17 14.6 SSE 20 26 11 14 1011.7 1010.5 0.0
23/07:00am 32.2 26.0 4.1 17 14.7 SSE 26 33 14 18 1011.5 1010.3 0.0
23/06:30am 31.5 26.3 3.5 17 14.4 S 20 26 11 14 1011.4 1010.2 0.0
23/06:00am 30.5 25.5 3.5 18 13.9 S 19 22 10 12 1011.2 1010.0 0.0
23/05:30am 28.0 23.0 3.7 21 12.3 S 19 20 10 11 1010.8 1009.6 0.0
23/05:00am 26.8 22.8 5.1 25 11.2 S 15 17 8 9 1010.8 1009.6 0.0
23/04:30am 25.4 23.5 11.9 43 7.8 S 13 15 7 8 1010.5 1009.4 0.0
23/04:00am 25.8 25.6 13.0 45 7.5 SW 6 9 3 5 1010.6 1009.5 0.0
23/03:30am 25.6 24.6 13.5 47 7.2 SW 11 15 6 8 1010.5 1009.4 0.0
23/03:00am 24.4 23.6 11.7 45 7.3 NNW 7 11 4 6 1010.4 1009.3 0.0
23/02:30am 24.8 23.3 9.1 37 8.6 N 7 9 4 5 1010.0 1008.8 0.0
23/02:00am 26.1 23.4 9.0 34 9.4 NNE 13 15 7 8 1010.2 1009.1 0.0
23/01:30am 27.5 25.2 7.4 28 10.8 E 9 13 5 7 1010.3 1009.2 0.0
23/01:00am 30.9 28.2 7.4 23 12.9 WSW 11 13 6 7 1010.4 1009.3 0.0
23/12:30am 31.3 28.2 7.1 22 13.2 S 13 17 7 9 1010.8 1009.6 0.0
23/12:00am 29.2 26.8 7.2 25 11.9 SSW 9 15 5 8 1011.0 1009.8 0.0
 
Date/Time
WST
Temp
°C
App
Temp
°C
Dew
Point
Rel
Hum
%
Delta-T
°C
Wind Press
QNH
hPa
Press
MSL
hPa
Rain
since 9 am
mm
Dir
 
Spd
km/h
Gust
km/h
Spd
kts
Gust
kts
22/11:30pm 31.6 28.3 7.9 23 13.1 W 15 19 8 10 1011.1 1009.9 0.0

Other Formats:

Comma delimited format used in spreadsheet applications
http://www.bom.gov.au/fwo/IDW60801/IDW60801.99311.axf

JavaScript Object Notation format (JSON) in row-major order
http://www.bom.gov.au/fwo/IDW60801/IDW60801.99311.json